Bezoek onze andere website:

Template documentation
and downloads

And another site



METAR rapporten vliegvelden

   
EBAW - Antwerp
Gewijzigd: 16-12-2018 10:50
Nevel, Grotendeels bewolkt  
Nevel, Grotendeels bewolkt  
   Wind: ZZW 11.1 km/h
Wind: ZZW 11.1 km/h
Temperatuur: 3°C
Voelt als: 0°C
Dauwpunt: 3°C
Vochtigheid: 100%
Barometer: 1010 hPa
Bewolking: Grotendeels bewolkt
Zicht: 4 km
Bewolking: Grotendeels bewolkt 300 ft
EBAW 160950Z 21006KT 3500 BR BKN003 03/03 Q1010 BECMG BKN005
EBLG - Li├Ęge
Gewijzigd: 16-12-2018 10:50
Grotendeels bewolkt  
Grotendeels bewolkt  
   Wind: Zuiden 14.8 km/h
Wind: Zuiden 14.8 km/h
Temperatuur: 2°C
Voelt als: -2°C
Dauwpunt: 1°C
Vochtigheid: 93%
Barometer: 1010 hPa
Bewolking: Grotendeels bewolkt
Zicht: 6 km
Bewolking: Licht bewolkt 500 ft,
Grotendeels bewolkt 3500 ft
EBLG 160950Z 18008KT 6000 FEW005 BKN035 02/01 Q1010 R22L/290195 TEMPO 3000 BR BKN003
EBCV - Mons/Bergen
Gewijzigd: 16-12-2018 10:55
Nevel, Bewolking  
Nevel, Bewolking  
   Wind: ZZW 13 km/h
Wind: ZZW 13 km/h
Temperatuur: 3°C
Voelt als: -1°C
Dauwpunt: 3°C
Vochtigheid: 100%
Barometer: 1011 hPa
Bewolking: Bewolking
Zicht: 2 km
Bewolking: Bewolking 200 ft
EBCV 160955Z AUTO 20007KT 2300 BR OVC002/// 03/03 Q1011 AMB
EHBK - Maastricht
Gewijzigd: 16-12-2018 10:55
Bewolking  
Bewolking  
   Wind: ZZW 24.1 km/h
Wind: ZZW 24.1 km/h
Temperatuur: 2°C
Voelt als: -3°C
Dauwpunt: 1°C
Vochtigheid: 93%
Barometer: 1010 hPa
Bewolking: Bewolking
Zicht: 7 km
Bewolking: Bewolking 500 ft
EHBK 160955Z AUTO 20013KT 7000 OVC005 02/01 Q1010 R03/610594 BECMG BKN004 TEMPO 4500 -DZ
ELLX - Luxemburg
Gewijzigd: 16-12-2018 10:50
Freezing, Mist, Bewolking  
Freezing, Mist, Bewolking  
   Wind: ZZW 7.4 km/h
Wind: ZZW 7.4 km/h
Temperatuur: -1°C
Voelt als: -4°C
Dauwpunt: -1°C
Vochtigheid: 100%
Barometer: 1012 hPa
Bewolking: Bewolking
Zicht: 0 km
Bewolking: Bewolking
ELLX 160950Z 21004KT 180V240 0100 R24/0375N FZFG OVC000 M01/M01 Q1012 TEMPO -FZRA
EBOS - Oostende
Gewijzigd: 16-12-2018 10:50
Nevel, Gedeeltelijk bewolkt  
Nevel, Gedeeltelijk bewolkt  
   Wind: Zuiden 14.8 km/h
Wind: Zuiden 14.8 km/h
Temperatuur: 4°C
Voelt als: 1°C
Dauwpunt: 2°C
Vochtigheid: 87%
Barometer: 1009 hPa
Bewolking: Gedeeltelijk bewolkt
Zicht: 5 km
Bewolking: Gedeeltelijk bewolkt 300 ft
EBOS 160950Z 18008KT 5000 BR SCT003 04/02 Q1009 TEMPO 3500 BR BKN003

Script ontwikkeld door  Saratoga-weather.org Aangepast voor de template door  Weerstation Leuven